createdAt,value
2018-10-21T00:00:09.870Z,14.30
2018-10-21T00:02:37.998Z,14.50
2018-10-21T00:05:06.991Z,14.87
2018-10-21T00:07:35.088Z,15.18
2018-10-21T00:10:03.393Z,15.10
2018-10-21T00:12:31.491Z,15.55
2018-10-21T00:14:59.602Z,15.40
2018-10-21T00:17:28.034Z,15.28
2018-10-21T00:19:56.192Z,14.65
2018-10-21T00:22:24.361Z,15.93
2018-10-21T00:24:52.545Z,16.75
2018-10-21T00:27:20.667Z,16.67
2018-10-21T00:29:48.786Z,16.48
2018-10-21T00:32:16.920Z,16.60
2018-10-21T00:34:45.001Z,16.37
2018-10-21T00:37:13.109Z,15.70
2018-10-21T00:39:41.202Z,16.00
2018-10-21T00:42:09.311Z,14.65
2018-10-21T00:44:37.404Z,15.38
2018-10-21T00:47:05.513Z,14.73
2018-10-21T00:49:33.607Z,15.30
2018-10-21T00:52:01.688Z,15.88
2018-10-21T00:54:29.780Z,15.20
2018-10-21T00:56:57.913Z,14.93
2018-10-21T00:59:26.007Z,15.43
2018-10-21T01:01:54.095Z,15.15
2018-10-21T01:04:22.199Z,15.53
2018-10-21T01:06:50.297Z,15.80
2018-10-21T01:09:18.715Z,15.58
2018-10-21T01:11:46.653Z,15.50
2018-10-21T01:14:14.808Z,15.75
2018-10-21T01:16:42.970Z,15.67
2018-10-21T01:19:11.051Z,16.12
2018-10-21T01:21:39.179Z,15.95
2018-10-21T01:24:07.047Z,15.95
2018-10-21T01:26:35.256Z,16.15
2018-10-21T01:29:03.363Z,16.40
2018-10-21T01:31:31.509Z,16.93
2018-10-21T01:33:59.630Z,16.65
2018-10-21T01:36:27.897Z,17.70
2018-10-21T01:38:55.833Z,16.27
2018-10-21T01:41:23.935Z,17.13
2018-10-21T01:43:52.008Z,17.73
2018-10-21T01:46:20.148Z,16.37
2018-10-21T01:48:48.316Z,17.33
2018-10-21T01:51:23.395Z,16.57
2018-10-21T01:53:51.514Z,17.63
2018-10-21T01:56:19.597Z,16.97
2018-10-21T01:58:47.684Z,17.57
2018-10-21T02:01:15.780Z,17.82
2018-10-21T02:03:43.884Z,17.50
2018-10-21T02:06:11.976Z,18.00
2018-10-21T02:08:40.061Z,17.80
2018-10-21T02:11:08.228Z,17.92
2018-10-21T02:13:36.411Z,18.35
2018-10-21T02:16:04.493Z,18.05
2018-10-21T02:18:32.609Z,18.60
2018-10-21T02:21:00.686Z,18.20
2018-10-21T02:23:28.772Z,19.33
2018-10-21T02:25:56.904Z,18.33
2018-10-21T02:28:24.991Z,18.57
2018-10-21T02:30:53.083Z,19.67
2018-10-21T02:33:21.309Z,18.15
2018-10-21T02:35:49.304Z,19.47
2018-10-21T02:38:17.536Z,18.90
2018-10-21T02:41:16.661Z,19.75
2018-10-21T02:43:44.755Z,18.50
2018-10-21T02:46:13.180Z,20.00
2018-10-21T02:48:42.056Z,20.80
2018-10-21T02:51:10.606Z,20.33
2018-10-21T02:53:38.617Z,21.37
2018-10-21T02:56:07.292Z,20.33
2018-10-21T02:58:35.369Z,20.73
2018-10-21T03:01:04.073Z,21.20
2018-10-21T03:03:32.166Z,21.65
2018-10-21T03:06:00.245Z,21.73
2018-10-21T03:08:28.360Z,21.20
2018-10-21T03:10:56.448Z,21.12
2018-10-21T03:13:24.599Z,20.85
2018-10-21T03:15:53.029Z,21.42
2018-10-21T03:18:21.196Z,21.00
2018-10-21T03:20:49.468Z,20.37
2018-10-21T03:23:17.527Z,21.53
2018-10-21T03:25:46.131Z,21.40
2018-10-21T03:28:14.476Z,20.32
2018-10-21T03:30:42.552Z,21.87
2018-10-21T03:33:10.744Z,21.67
2018-10-21T03:35:38.723Z,22.57
2018-10-21T03:38:06.839Z,21.65
2018-10-21T03:40:34.988Z,22.83
2018-10-21T03:43:03.052Z,21.60
2018-10-21T03:45:31.176Z,22.63
2018-10-21T03:47:59.256Z,22.20
2018-10-21T03:50:27.953Z,21.68
2018-10-21T03:52:56.229Z,22.13
2018-10-21T03:55:24.355Z,22.45
2018-10-21T03:57:52.683Z,23.03
2018-10-21T04:00:20.896Z,22.10
2018-10-21T04:02:49.008Z,21.95
2018-10-21T04:05:17.112Z,22.40
2018-10-21T04:07:45.184Z,22.47
2018-10-21T04:10:13.980Z,21.83
2018-10-21T04:12:42.047Z,21.30
2018-10-21T04:15:10.329Z,21.57
2018-10-21T04:17:38.408Z,21.60
2018-10-21T04:20:06.953Z,22.05
2018-10-21T04:22:39.232Z,21.00
2018-10-21T04:25:07.321Z,21.30
2018-10-21T04:27:35.401Z,21.33
2018-10-21T04:30:03.590Z,20.97
2018-10-21T04:32:33.303Z,20.77
2018-10-21T04:35:01.421Z,21.73
2018-10-21T04:39:44.676Z,20.77
2018-10-21T04:42:12.809Z,20.40
2018-10-21T04:44:40.940Z,21.10
2018-10-21T04:47:09.147Z,22.30
2018-10-21T04:49:37.172Z,21.20
2018-10-21T04:52:05.278Z,21.30
2018-10-21T04:54:35.975Z,20.57
2018-10-21T04:57:06.210Z,21.90
2018-10-21T04:59:34.664Z,20.82
2018-10-21T05:02:02.772Z,21.60
2018-10-21T05:04:31.047Z,20.97
2018-10-21T05:06:59.133Z,21.00
2018-10-21T05:09:27.215Z,22.93
2018-10-21T05:11:55.329Z,22.33
2018-10-21T05:14:23.813Z,21.82
2018-10-21T05:16:51.960Z,22.07
2018-10-21T05:19:20.185Z,23.17
2018-10-21T05:21:48.652Z,22.03
2018-10-21T05:24:16.744Z,22.45
2018-10-21T05:26:44.827Z,22.00
2018-10-21T05:29:13.767Z,23.70
2018-10-21T05:31:41.897Z,26.60
2018-10-21T05:34:10.188Z,22.13
2018-10-21T05:36:38.371Z,22.40
2018-10-21T05:39:07.960Z,23.37
2018-10-21T05:41:36.272Z,22.50
2018-10-21T05:44:04.644Z,24.83
2018-10-21T05:46:41.597Z,24.92
2018-10-21T05:49:09.740Z,22.43
2018-10-21T05:51:38.524Z,22.40
2018-10-21T05:54:07.140Z,22.90
2018-10-21T05:56:35.396Z,23.87
2018-10-21T05:59:03.548Z,21.90
2018-10-21T06:01:31.640Z,22.85
2018-10-21T06:03:59.918Z,24.03
2018-10-21T06:06:27.996Z,23.37
2018-10-21T06:08:56.079Z,23.07
2018-10-21T06:11:24.189Z,22.80
2018-10-21T06:13:52.444Z,22.00
2018-10-21T06:16:20.815Z,22.00
2018-10-21T06:18:48.692Z,23.38
2018-10-21T06:21:16.756Z,24.03
2018-10-21T06:23:45.030Z,22.73
2018-10-21T06:26:13.025Z,25.37
2018-10-21T06:28:41.605Z,23.53
2018-10-21T06:31:09.685Z,22.97
2018-10-21T06:33:37.822Z,23.40
2018-10-21T06:36:05.890Z,21.93
2018-10-21T06:38:33.977Z,23.73
2018-10-21T06:41:02.073Z,21.75
2018-10-21T06:43:30.488Z,23.27
2018-10-21T06:45:58.570Z,22.85
2018-10-21T06:48:26.729Z,23.30
2018-10-21T06:50:54.806Z,23.43
2018-10-21T06:53:22.880Z,21.97
2018-10-21T06:55:50.954Z,21.63
2018-10-21T06:58:19.211Z,21.67
2018-10-21T07:00:47.284Z,22.03
2018-10-21T07:03:15.423Z,23.07
2018-10-21T07:06:19.811Z,21.82
2018-10-21T07:08:48.709Z,21.97
2018-10-21T07:11:16.810Z,22.07
2018-10-21T07:13:45.156Z,23.97
2018-10-21T07:16:13.687Z,24.70
2018-10-21T07:18:42.533Z,21.85
2018-10-21T07:21:10.800Z,22.35
2018-10-21T07:23:39.417Z,24.27
2018-10-21T07:26:07.590Z,21.05
2018-10-21T07:28:35.716Z,21.75
2018-10-21T07:31:04.016Z,20.30
2018-10-21T07:33:32.120Z,19.98
2018-10-21T07:36:00.382Z,20.52
2018-10-21T07:38:28.497Z,20.65
2018-10-21T07:40:57.249Z,20.88
2018-10-21T07:43:25.332Z,21.37
2018-10-21T07:45:53.454Z,20.75
2018-10-21T07:48:21.599Z,21.55
2018-10-21T07:50:49.759Z,19.25
2018-10-21T07:53:17.840Z,18.57
2018-10-21T07:55:45.976Z,17.70
2018-10-21T07:58:14.096Z,18.73
2018-10-21T08:00:42.194Z,17.95
2018-10-21T08:03:10.312Z,17.37
2018-10-21T08:05:44.099Z,19.00
2018-10-21T08:08:16.977Z,19.70
2018-10-21T08:10:45.108Z,18.85
2018-10-21T08:13:14.337Z,19.87
2018-10-21T08:15:43.022Z,19.57
2018-10-21T08:18:11.935Z,19.37
2018-10-21T08:20:41.012Z,18.12
2018-10-21T08:23:10.528Z,17.05
2018-10-21T08:25:38.903Z,18.67
2018-10-21T08:28:07.154Z,16.65
2018-10-21T08:30:35.252Z,16.93
2018-10-21T08:33:04.357Z,17.62
2018-10-21T08:35:32.434Z,17.50
2018-10-21T08:38:00.663Z,17.25
2018-10-21T08:40:29.087Z,17.23
2018-10-21T08:42:57.385Z,15.88
2018-10-21T08:45:25.851Z,17.65
2018-10-21T08:47:54.075Z,17.15
2018-10-21T08:50:22.209Z,16.45
2018-10-21T08:52:50.311Z,16.00
2018-10-21T08:55:18.414Z,17.10
2018-10-21T08:57:46.505Z,17.02
2018-10-21T09:00:16.312Z,18.48
2018-10-21T09:02:45.003Z,18.85
2018-10-21T09:05:14.423Z,17.42
2018-10-21T09:07:43.216Z,17.90
2018-10-21T09:10:12.587Z,19.02
2018-10-21T09:12:40.876Z,18.98
2018-10-21T09:15:10.135Z,20.45
2018-10-21T09:17:38.668Z,20.25
2018-10-21T09:20:07.791Z,20.50
2018-10-21T09:22:35.904Z,20.80
2018-10-21T09:25:04.849Z,20.27
2018-10-21T09:27:33.093Z,19.62
2018-10-21T09:30:01.584Z,19.80
2018-10-21T09:32:29.805Z,20.72
2018-10-21T09:34:57.984Z,19.67
2018-10-21T09:37:26.078Z,19.62
2018-10-21T09:39:54.199Z,20.25
2018-10-21T09:42:22.389Z,19.17
2018-10-21T09:44:51.076Z,18.37
2018-10-21T09:47:19.208Z,19.05
2018-10-21T09:49:47.316Z,19.10
2018-10-21T09:52:15.554Z,17.95
2018-10-21T09:54:43.601Z,16.55
2018-10-21T09:57:11.712Z,17.40
2018-10-21T09:59:39.904Z,17.02
2018-10-21T10:02:13.687Z,17.20
2018-10-21T10:04:41.956Z,16.07
2018-10-21T10:07:10.213Z,16.57
2018-10-21T10:09:38.343Z,16.52
2018-10-21T10:12:06.404Z,17.15
2018-10-21T10:14:34.584Z,16.48
2018-10-21T10:17:02.672Z,16.60
2018-10-21T10:19:30.778Z,17.12
2018-10-21T10:21:58.942Z,16.57
2018-10-21T10:24:27.034Z,16.57
2018-10-21T10:26:55.152Z,17.12
2018-10-21T10:29:23.332Z,16.90
2018-10-21T10:31:51.505Z,17.05
2018-10-21T10:34:19.781Z,17.20
2018-10-21T10:36:48.117Z,15.85
2018-10-21T10:39:16.336Z,16.02
2018-10-21T10:41:44.433Z,15.40
2018-10-21T10:44:12.579Z,15.43
2018-10-21T10:46:40.694Z,15.50
2018-10-21T10:49:08.945Z,16.48
2018-10-21T10:51:36.967Z,16.00
2018-10-21T10:54:05.441Z,16.00
2018-10-21T10:56:33.549Z,16.75
2018-10-21T10:59:01.684Z,15.83
2018-10-21T11:01:29.821Z,15.08
2018-10-21T11:03:57.968Z,16.00
2018-10-21T11:06:26.082Z,15.60
2018-10-21T11:08:54.825Z,15.43
2018-10-21T11:11:23.013Z,16.17
2018-10-21T11:13:51.203Z,16.75
2018-10-21T11:16:19.372Z,16.30
2018-10-21T11:18:47.514Z,16.17
2018-10-21T11:21:15.629Z,14.68
2018-10-21T11:23:44.376Z,15.30
2018-10-21T11:26:12.488Z,15.78
2018-10-21T11:28:40.596Z,15.65
2018-10-21T11:31:08.748Z,15.95
2018-10-21T11:33:37.291Z,15.95
2018-10-21T11:36:05.400Z,15.95
2018-10-21T11:38:33.565Z,15.18
2018-10-21T11:41:01.684Z,14.78
2018-10-21T11:43:29.820Z,14.60
2018-10-21T11:45:58.011Z,14.20
2018-10-21T11:48:26.123Z,14.47
2018-10-21T11:50:55.243Z,14.05
2018-10-21T11:53:23.935Z,12.13
2018-10-21T11:55:52.096Z,12.35
2018-10-21T11:58:20.241Z,11.63
2018-10-21T12:00:48.381Z,10.32
2018-10-21T12:03:16.481Z,10.15
2018-10-21T12:05:44.727Z,9.18
2018-10-21T12:08:13.221Z,9.93
2018-10-21T12:10:41.296Z,9.80
2018-10-21T12:13:09.461Z,9.50
2018-10-21T12:15:37.596Z,10.08
2018-10-21T12:18:05.942Z,9.55
2018-10-21T12:20:34.069Z,10.43
2018-10-21T12:23:02.319Z,10.38
2018-10-21T12:25:30.431Z,9.63
2018-10-21T12:27:58.556Z,9.60
2018-10-21T12:30:26.646Z,8.88
2018-10-21T12:32:54.756Z,9.13
2018-10-21T12:35:22.847Z,9.15
2018-10-21T12:37:50.941Z,9.00
2018-10-21T12:40:19.113Z,8.35
2018-10-21T12:42:47.153Z,7.87
2018-10-21T12:45:15.283Z,7.22
2018-10-21T12:47:43.392Z,7.60
2018-10-21T12:50:11.625Z,7.47
2018-10-21T12:52:39.739Z,7.25
2018-10-21T12:55:08.517Z,7.87
2018-10-21T12:57:36.684Z,7.35
2018-10-21T13:00:04.909Z,7.62
2018-10-21T13:02:33.113Z,6.37
2018-10-21T13:05:01.299Z,6.85
2018-10-21T13:07:29.534Z,6.80
2018-10-21T13:09:57.759Z,6.22
2018-10-21T13:12:25.908Z,5.87
2018-10-21T13:14:54.024Z,5.30
2018-10-21T13:17:22.164Z,5.97
2018-10-21T13:19:50.478Z,5.75
2018-10-21T13:22:18.593Z,5.67
2018-10-21T13:24:46.732Z,6.20
2018-10-21T13:27:15.037Z,5.95
2018-10-21T13:29:43.143Z,6.72
2018-10-21T13:32:11.251Z,6.17
2018-10-21T13:34:39.554Z,5.85
2018-10-21T13:37:07.655Z,5.40
2018-10-21T13:39:35.828Z,5.53
2018-10-21T13:42:04.069Z,5.45
2018-10-21T13:44:32.165Z,5.42
2018-10-21T13:47:00.301Z,6.28
2018-10-21T13:49:28.471Z,5.62
2018-10-21T13:51:56.751Z,5.53
2018-10-21T13:54:24.696Z,6.08
2018-10-21T13:56:53.532Z,6.08
2018-10-21T13:59:21.644Z,6.45
2018-10-21T14:01:49.731Z,6.05
2018-10-21T14:04:17.877Z,5.85
2018-10-21T14:06:46.089Z,6.40
2018-10-21T14:09:14.415Z,5.85
2018-10-21T14:11:42.508Z,6.22
2018-10-21T14:14:11.568Z,5.65
2018-10-21T14:16:39.905Z,5.08
2018-10-21T14:19:08.776Z,5.70
2018-10-21T14:21:36.910Z,5.03
2018-10-21T14:24:05.183Z,6.15
2018-10-21T14:26:33.447Z,5.65
2018-10-21T14:29:01.732Z,5.92
2018-10-21T14:31:29.835Z,5.97
2018-10-21T14:33:58.039Z,5.30
2018-10-21T14:36:26.276Z,5.70
2018-10-21T14:38:54.403Z,5.95
2018-10-21T14:41:22.560Z,6.62
2018-10-21T14:43:52.136Z,7.42
2018-10-21T14:46:20.270Z,7.70
2018-10-21T14:48:48.381Z,7.20
2018-10-21T14:51:16.569Z,7.12
2018-10-21T14:53:44.755Z,6.90
2018-10-21T14:56:12.924Z,7.95
2018-10-21T14:58:40.990Z,7.55
2018-10-21T15:01:09.124Z,7.58
2018-10-21T15:03:37.289Z,6.37
2018-10-21T15:06:05.415Z,7.08
2018-10-21T15:08:33.564Z,6.65
2018-10-21T15:11:01.719Z,6.33
2018-10-21T15:13:29.840Z,7.00
2018-10-21T15:15:57.958Z,6.50
2018-10-21T15:18:26.165Z,7.50
2018-10-21T15:20:54.245Z,7.37
2018-10-21T15:23:22.391Z,7.15
2018-10-21T15:25:50.522Z,7.05
2018-10-21T15:28:18.665Z,6.33
2018-10-21T15:30:46.946Z,7.33
2018-10-21T15:33:15.608Z,6.03
2018-10-21T15:35:43.816Z,6.10
2018-10-21T15:38:12.220Z,5.55
2018-10-21T15:40:40.292Z,5.47
2018-10-21T15:43:08.444Z,5.95
2018-10-21T15:45:36.744Z,5.42
2018-10-21T15:48:05.025Z,5.03
2018-10-21T15:50:33.213Z,5.00
2018-10-21T15:53:01.240Z,4.87
2018-10-21T15:55:30.049Z,5.00
2018-10-21T15:57:58.161Z,4.65
2018-10-21T16:00:26.315Z,4.65
2018-10-21T16:02:54.429Z,5.42
2018-10-21T16:05:22.561Z,5.95
2018-10-21T16:07:50.724Z,5.65
2018-10-21T16:10:18.939Z,6.17
2018-10-21T16:12:47.089Z,6.20
2018-10-21T16:15:16.215Z,6.05
2018-10-21T16:17:45.125Z,5.80
2018-10-21T16:20:13.336Z,6.05
2018-10-21T16:22:42.294Z,6.47
2018-10-21T16:25:12.834Z,7.05
2018-10-21T16:27:41.214Z,6.72
2018-10-21T16:30:11.109Z,6.62
2018-10-21T16:32:40.156Z,7.42
2018-10-21T16:35:08.893Z,7.85
2018-10-21T16:37:37.351Z,6.87
2018-10-21T16:40:06.395Z,7.22
2018-10-21T16:42:34.483Z,7.03
2018-10-21T16:45:02.848Z,7.12
2018-10-21T16:47:30.897Z,6.87
2018-10-21T16:49:59.121Z,6.62
2018-10-21T16:52:27.275Z,7.05
2018-10-21T16:54:55.474Z,7.25
2018-10-21T16:57:23.704Z,7.12
2018-10-21T16:59:51.948Z,7.70
2018-10-21T17:02:20.527Z,8.15
2018-10-21T17:04:48.771Z,7.53
2018-10-21T17:07:16.944Z,7.50
2018-10-21T17:09:45.338Z,8.00
2018-10-21T17:12:13.135Z,7.92
2018-10-21T17:14:41.417Z,8.10
2018-10-21T17:17:09.564Z,7.08
2018-10-21T17:19:37.704Z,7.72
2018-10-21T17:22:05.930Z,7.90
2018-10-21T17:24:34.044Z,8.18
2018-10-21T17:27:02.157Z,8.18
2018-10-21T17:29:30.373Z,8.15
2018-10-21T17:31:59.068Z,9.08
2018-10-21T17:34:27.206Z,8.60
2018-10-21T17:36:55.289Z,8.60
2018-10-21T17:39:23.416Z,9.08
2018-10-21T17:41:51.604Z,8.65
2018-10-21T17:44:19.759Z,8.10
2018-10-21T17:46:47.917Z,8.23
2018-10-21T17:49:16.077Z,8.00
2018-10-21T17:51:44.116Z,9.25
2018-10-21T17:54:12.221Z,8.10
2018-10-21T17:56:45.672Z,7.65
2018-10-21T17:59:13.783Z,8.23
2018-10-21T18:01:41.912Z,8.25
2018-10-21T18:04:10.175Z,8.08
2018-10-21T18:06:38.310Z,8.93
2018-10-21T18:09:07.647Z,8.20
2018-10-21T18:11:35.818Z,8.68
2018-10-21T18:14:03.990Z,8.98
2018-10-21T18:16:32.159Z,9.45
2018-10-21T18:19:00.384Z,12.88
2018-10-21T18:21:28.500Z,11.08
2018-10-21T18:23:56.620Z,10.80
2018-10-21T18:26:24.797Z,10.03
2018-10-21T18:28:52.906Z,19.52
2018-10-21T18:31:21.032Z,22.22
2018-10-21T18:33:49.759Z,21.33
2018-10-21T18:36:17.888Z,21.37
2018-10-21T18:38:46.096Z,20.40
2018-10-21T18:41:14.781Z,17.92
2018-10-21T18:43:42.717Z,16.45
2018-10-21T18:46:11.408Z,16.80
2018-10-21T18:48:39.636Z,15.70
2018-10-21T18:51:07.828Z,15.53
2018-10-21T18:53:35.924Z,15.18
2018-10-21T18:56:04.037Z,15.18
2018-10-21T18:58:32.378Z,15.05
2018-10-21T19:01:00.504Z,14.38
2018-10-21T19:03:28.583Z,15.20
2018-10-21T19:05:56.724Z,14.83
2018-10-21T19:08:24.856Z,14.63
2018-10-21T19:10:52.996Z,15.55
2018-10-21T19:13:21.098Z,15.08
2018-10-21T19:15:49.289Z,15.00
2018-10-21T19:18:17.440Z,15.05
2018-10-21T19:20:45.684Z,15.83
2018-10-21T19:23:13.816Z,14.23
2018-10-21T19:25:42.001Z,15.60
2018-10-21T19:28:10.275Z,15.63
2018-10-21T19:30:38.411Z,15.17
2018-10-21T19:33:06.662Z,14.35
2018-10-21T19:35:34.940Z,15.03
2018-10-21T19:38:03.077Z,14.60
2018-10-21T19:40:31.204Z,15.05
2018-10-21T19:42:59.443Z,15.58
2018-10-21T19:45:27.581Z,16.87
2018-10-21T19:47:56.488Z,15.87
2018-10-21T19:50:24.632Z,16.53
2018-10-21T19:52:52.807Z,15.08
2018-10-21T19:55:20.939Z,14.73
2018-10-21T19:57:49.072Z,14.87
2018-10-21T20:00:17.685Z,15.10
2018-10-21T20:02:46.079Z,14.57
2018-10-21T20:05:14.364Z,13.37
2018-10-21T20:07:42.553Z,14.10
2018-10-21T20:10:11.914Z,14.00
2018-10-21T20:12:39.992Z,13.72
2018-10-21T20:15:08.905Z,15.15
2018-10-21T20:17:37.172Z,13.70
2018-10-21T20:20:06.565Z,12.45
2018-10-21T20:22:34.855Z,12.55
2018-10-21T20:25:03.036Z,11.80
2018-10-21T20:27:31.247Z,12.63
2018-10-21T20:29:59.928Z,12.87
2018-10-21T20:32:28.406Z,13.13
2018-10-21T20:34:56.498Z,13.20
2018-10-21T20:37:24.827Z,12.63
2018-10-21T20:39:53.037Z,13.65
2018-10-21T20:42:21.290Z,12.90
2018-10-21T20:44:49.421Z,12.07
2018-10-21T20:47:17.568Z,12.00
2018-10-21T20:49:45.659Z,11.50
2018-10-21T20:52:13.862Z,11.60
2018-10-21T20:54:47.083Z,12.00
2018-10-21T20:57:15.428Z,11.75
2018-10-21T20:59:44.870Z,12.10
2018-10-21T21:02:14.452Z,12.30
2018-10-21T21:04:42.599Z,11.53
2018-10-21T21:07:11.134Z,11.70
2018-10-21T21:09:40.012Z,11.57
2018-10-21T21:12:08.236Z,12.25
2018-10-21T21:14:36.428Z,11.67
2018-10-21T21:17:05.057Z,11.67
2018-10-21T21:19:33.519Z,13.07
2018-10-21T21:22:01.832Z,12.50
2018-10-21T21:24:30.009Z,12.47
2018-10-21T21:26:58.188Z,12.43
2018-10-21T21:29:26.348Z,11.47
2018-10-21T21:31:54.438Z,11.37
2018-10-21T21:34:22.569Z,12.43
2018-10-21T21:36:50.822Z,11.47
2018-10-21T21:39:18.926Z,10.90
2018-10-21T21:41:47.312Z,11.60
2018-10-21T21:44:15.866Z,11.13
2018-10-21T21:46:44.245Z,11.73
2018-10-21T21:49:13.472Z,12.17
2018-10-21T21:51:41.560Z,11.07
2018-10-21T21:54:11.264Z,11.43
2018-10-21T21:56:39.700Z,10.97
2018-10-21T21:59:08.404Z,11.00
2018-10-21T22:01:36.797Z,10.50
2018-10-21T22:04:05.795Z,10.60
2018-10-21T22:06:33.873Z,10.97
2018-10-21T22:09:02.074Z,10.20
2018-10-21T22:11:30.725Z,10.63
2018-10-21T22:13:58.855Z,11.57
2018-10-21T22:16:26.959Z,11.12
2018-10-21T22:18:55.085Z,10.67
2018-10-21T22:21:23.193Z,10.30
2018-10-21T22:23:51.310Z,11.60
2018-10-21T22:26:19.418Z,11.70
2018-10-21T22:28:47.501Z,11.10
2018-10-21T22:31:15.606Z,10.90
2018-10-21T22:33:43.676Z,11.13
2018-10-21T22:36:11.868Z,10.97
2018-10-21T22:38:39.896Z,11.33
2018-10-21T22:41:08.032Z,11.83
2018-10-21T22:43:36.465Z,11.37
2018-10-21T22:46:05.169Z,11.50
2018-10-21T22:48:33.226Z,11.80
2018-10-21T22:51:01.359Z,12.03
2018-10-21T22:53:29.584Z,11.80
2018-10-21T22:55:57.663Z,12.13
2018-10-21T22:58:25.764Z,12.03
2018-10-21T23:00:53.927Z,12.17
2018-10-21T23:03:22.028Z,12.40
2018-10-21T23:05:50.106Z,12.87
2018-10-21T23:08:18.293Z,13.00
2018-10-21T23:10:46.367Z,12.13
2018-10-21T23:13:14.459Z,12.07
2018-10-21T23:15:42.555Z,12.63
2018-10-21T23:18:10.706Z,12.20
2018-10-21T23:20:38.789Z,11.80
2018-10-21T23:23:06.863Z,11.77
2018-10-21T23:25:35.052Z,12.43
2018-10-21T23:28:03.307Z,12.63
2018-10-21T23:30:31.366Z,12.87
2018-10-21T23:32:59.449Z,11.87
2018-10-21T23:35:27.540Z,12.07
2018-10-21T23:37:55.703Z,12.47
2018-10-21T23:40:23.894Z,12.40
2018-10-21T23:42:52.088Z,12.60
2018-10-21T23:45:20.177Z,12.83
2018-10-21T23:47:48.347Z,12.77
2018-10-21T23:50:16.436Z,12.30
2018-10-21T23:52:44.520Z,12.30
2018-10-21T23:55:12.608Z,12.30
2018-10-21T23:57:40.689Z,12.43
